Time;durP1;ratioP1;P1;durP2;ratioP2;P2;SDS_P1;SDS_P2;PMS_P1;PMS_P2;Temp;Humidity;BMP_temperature;BMP_pressure;BME280_temperature;BME280_humidity;BME280_pressure;Samples;Min_cycle;Max_cycle;Signal;HPM_P1;HPM_P2
2022/12/20 00:00:10;;;;;;;8.35;4.47;;;;;;;16.29;47.63;98181.81;5011614;28;20537;-32
2022/12/20 00:02:36;;;;;;;6.20;4.22;;;;;;;16.30;47.31;98177.88;5010421;28;20080;-32
2022/12/20 00:05:01;;;;;;;6.47;4.40;;;;;;;16.37;47.52;98174.97;5011620;28;20026;-32
2022/12/20 00:07:27;;;;;;;5.68;4.13;;;;;;;16.30;47.10;98177.88;5011436;28;20117;-32
2022/12/20 00:09:52;;;;;;;5.90;4.20;;;;;;;16.27;47.36;98173.22;5011321;28;20635;-32
2022/12/20 00:12:18;;;;;;;8.60;4.72;;;;;;;16.26;47.36;98177.94;5015654;28;20094;-32
2022/12/20 00:14:43;;;;;;;7.80;4.65;;;;;;;16.40;46.87;98174.13;5002882;28;20033;-32
2022/12/20 00:17:09;;;;;;;6.88;4.47;;;;;;;16.28;47.16;98169.31;5011403;28;20034;-32
2022/12/20 00:19:35;;;;;;;9.38;4.78;;;;;;;16.33;47.16;98172.31;5011552;28;20018;-32
2022/12/20 00:22:00;;;;;;;8.23;4.53;;;;;;;16.26;47.36;98163.47;5011516;28;20025;-32
2022/12/20 00:24:26;;;;;;;6.03;4.20;;;;;;;16.30;47.05;98170.44;5011973;28;20083;-31
2022/12/20 00:26:51;;;;;;;7.55;3.95;;;;;;;16.29;47.03;98168.09;5009238;28;20053;-31
2022/12/20 00:29:16;;;;;;;5.30;3.65;;;;;;;16.29;46.70;98170.84;5004615;28;20034;-31
2022/12/20 00:31:42;;;;;;;5.18;3.47;;;;;;;16.30;46.73;98162.22;5012800;28;20498;-31
2022/12/20 00:34:08;;;;;;;6.25;3.72;;;;;;;16.30;47.01;98167.69;5013620;28;20032;-31
2022/12/20 00:36:33;;;;;;;7.05;3.95;;;;;;;16.28;47.01;98163.81;5009388;28;20026;-31
2022/12/20 00:38:59;;;;;;;6.32;4.25;;;;;;;16.22;46.98;98160.03;5004326;28;20076;-31
2022/12/20 00:41:32;;;;;;;5.70;3.75;;;;;;;16.24;47.20;98163.88;5000241;28;20028;-31
2022/12/20 00:43:57;;;;;;;6.18;3.78;;;;;;;16.23;46.87;98162.34;4984327;28;20368;-31
2022/12/20 00:46:24;;;;;;;5.63;3.45;;;;;;;16.23;46.71;98162.34;5011595;28;20044;-31
2022/12/20 00:48:50;;;;;;;4.80;3.05;;;;;;;16.27;46.90;98156.81;5014947;28;20084;-31
2022/12/20 00:51:19;;;;;;;5.90;3.40;;;;;;;16.22;46.78;98157.28;5017147;28;20018;-31
2022/12/20 00:53:45;;;;;;;5.10;3.15;;;;;;;16.22;46.64;98155.31;4999443;28;20022;-31
2022/12/20 00:56:11;;;;;;;4.90;2.97;;;;;;;16.26;47.14;98150.56;5016871;28;20029;-31
2022/12/20 00:58:38;;;;;;;4.63;3.20;;;;;;;16.20;46.99;98157.69;5017474;28;20026;-31
2022/12/20 01:01:06;;;;;;;4.60;2.90;;;;;;;16.22;46.98;98151.81;5016950;28;20469;-32
2022/12/20 01:03:31;;;;;;;4.85;3.00;;;;;;;16.22;46.84;98141.63;5017046;28;20034;-32
2022/12/20 01:05:59;;;;;;;5.22;2.85;;;;;;;16.12;47.16;98145.38;5016612;28;20024;-32
2022/12/20 01:08:29;;;;;;;4.90;3.17;;;;;;;16.16;46.86;98146.84;5016989;28;20022;-32
2022/12/20 01:11:02;;;;;;;5.43;3.60;;;;;;;16.24;47.06;98143.94;5016765;28;20026;-32
2022/12/20 01:13:29;;;;;;;5.22;2.95;;;;;;;16.17;47.19;98134.72;5016805;28;20034;-32
2022/12/20 01:15:55;;;;;;;6.78;3.30;;;;;;;16.26;46.84;98133.34;5023715;28;20025;-32
2022/12/20 01:18:20;;;;;;;6.80;3.30;;;;;;;16.24;47.23;98139.25;5022591;28;20040;-32
2022/12/20 01:20:46;;;;;;;5.05;3.33;;;;;;;16.23;47.06;98143.19;5016377;28;20026;-32
2022/12/20 01:23:11;;;;;;;5.32;3.03;;;;;;;16.11;47.20;98138.34;5015229;28;20488;-32
2022/12/20 01:25:37;;;;;;;4.82;2.92;;;;;;;16.14;47.22;98132.81;5003521;28;20026;-31
2022/12/20 01:28:02;;;;;;;5.03;2.53;;;;;;;16.09;47.17;98135.25;5016763;28;20080;-31
2022/12/20 01:30:28;;;;;;;5.38;2.83;;;;;;;16.19;46.81;98141.72;5016341;28;20047;-31
2022/12/20 01:32:53;;;;;;;6.18;3.53;;;;;;;16.09;46.88;98136.03;5024176;28;20029;-31
2022/12/20 01:35:18;;;;;;;5.30;3.10;;;;;;;16.16;47.21;98141.38;5022972;28;20028;-31
2022/12/20 01:37:44;;;;;;;6.20;3.47;;;;;;;16.19;46.62;98147.19;5022989;28;20025;-31
2022/12/20 01:40:10;;;;;;;6.88;3.42;;;;;;;16.19;46.97;98136.25;5016432;28;20041;-31
2022/12/20 01:42:36;;;;;;;6.75;3.60;;;;;;;16.14;46.96;98138.28;5016229;28;20049;-31
2022/12/20 01:45:04;;;;;;;6.78;3.35;;;;;;;16.11;47.12;98139.13;5003294;28;20462;-31
2022/12/20 01:47:33;;;;;;;5.60;3.35;;;;;;;16.12;46.78;98132.44;5016033;28;20025;-31
2022/12/20 01:50:01;;;;;;;6.20;3.05;;;;;;;16.15;47.06;98130.84;5016174;28;20018;-31
2022/12/20 01:52:33;;;;;;;5.82;3.33;;;;;;;16.07;47.21;98132.94;5016153;28;20034;-31
2022/12/20 01:54:59;;;;;;;5.88;2.97;;;;;;;16.09;46.92;98127.81;5016036;28;20109;-31
2022/12/20 01:57:33;;;;;;;4.32;2.88;;;;;;;16.08;46.84;98118.06;5015874;28;20110;-31
2022/12/20 01:59:59;;;;;;;5.30;2.85;;;;;;;16.09;47.22;98116.88;5015052;28;20445;-31
2022/12/20 02:02:25;;;;;;;7.22;3.00;;;;;;;16.12;46.88;98113.28;5015861;28;20026;-31
2022/12/20 02:04:51;;;;;;;4.78;2.60;;;;;;;16.07;46.96;98121.25;5016017;28;20074;-31
2022/12/20 02:07:30;;;;;;;5.80;2.88;;;;;;;16.06;47.37;98117.72;5015463;28;20030;-31
2022/12/20 02:09:57;;;;;;;4.75;2.50;;;;;;;16.11;47.11;98114.47;5015503;28;20088;-31
2022/12/20 02:12:25;;;;;;;4.13;2.17;;;;;;;16.12;47.13;98107.81;5015441;28;20113;-31
2022/12/20 02:15:05;;;;;;;4.05;2.42;;;;;;;16.06;47.17;98115.00;5015221;28;20084;-31
2022/12/20 02:17:50;;;;;;;4.10;2.10;;;;;;;16.04;47.20;98114.63;5001180;28;20026;-31
2022/12/20 02:20:40;;;;;;;4.40;2.63;;;;;;;16.00;47.39;98110.41;5015554;28;20057;-31
2022/12/20 02:23:17;;;;;;;4.35;2.30;;;;;;;16.05;47.35;98110.72;5015352;28;20026;-31
2022/12/20 02:26:07;;;;;;;3.15;2.10;;;;;;;16.09;47.22;98113.34;5001420;28;20109;-31
2022/12/20 02:28:54;;;;;;;4.97;2.58;;;;;;;16.05;47.55;98107.97;5014706;28;20018;-31
2022/12/20 02:31:28;;;;;;;4.60;2.08;;;;;;;15.99;47.57;98106.91;5015220;28;20050;-31
2022/12/20 02:33:56;;;;;;;4.40;2.65;;;;;;;16.02;47.88;98106.06;5015214;28;20105;-31
2022/12/20 02:36:22;;;;;;;3.90;2.05;;;;;;;15.99;48.13;98108.88;5015000;28;20462;-31
2022/12/20 02:38:47;;;;;;;4.53;2.50;;;;;;;16.00;47.96;98100.25;4997520;28;20030;-31
2022/12/20 02:41:25;;;;;;;4.75;2.40;;;;;;;16.05;47.77;98101.72;5015089;28;20029;-31
2022/12/20 02:46:46;;;;;;;4.03;2.10;;;;;;;15.98;48.23;98099.88;5003875;28;20401;-31
2022/12/20 02:49:16;;;;;;;3.55;1.88;;;;;;;15.99;48.06;98106.91;4997607;28;20524;-31
2022/12/20 02:51:44;;;;;;;3.90;1.70;;;;;;;15.99;48.15;98098.69;5015009;28;20030;-31
2022/12/20 02:54:11;;;;;;;4.07;1.80;;;;;;;16.03;48.05;98109.59;5014690;28;20468;-31
2022/12/20 02:56:42;;;;;;;3.90;1.52;;;;;;;15.96;48.11;98090.56;5014816;28;20044;-31
2022/12/20 02:59:15;;;;;;;2.17;1.60;;;;;;;16.02;48.08;98092.38;5014799;28;20470;-31
2022/12/20 03:01:49;;;;;;;3.15;1.58;;;;;;;15.95;48.11;98095.25;5014870;28;20380;-31
2022/12/20 03:04:17;;;;;;;4.53;1.95;;;;;;;15.96;48.23;98091.31;5014683;28;20110;-30
2022/12/20 03:07:00;;;;;;;3.50;1.75;;;;;;;15.96;48.01;98091.31;5014725;28;20021;-30
2022/12/20 03:09:29;;;;;;;2.75;1.50;;;;;;;15.96;48.09;98096.78;5001632;28;20034;-30
2022/12/20 03:11:54;;;;;;;2.83;1.50;;;;;;;15.99;48.31;98086.97;5014262;28;20025;-30
2022/12/20 03:14:20;;;;;;;3.47;1.60;;;;;;;15.97;47.99;98076.44;5014630;28;20488;-31
2022/12/20 03:16:46;;;;;;;2.60;1.30;;;;;;;15.94;48.10;98080.06;5014527;28;20034;-31
2022/12/20 03:19:11;;;;;;;2.40;1.60;;;;;;;15.96;47.96;98077.66;5014408;28;20047;-31
2022/12/20 03:21:37;;;;;;;3.10;1.67;;;;;;;15.96;48.08;98072.16;5014466;28;20025;-31
2022/12/20 03:24:03;;;;;;;3.35;1.40;;;;;;;15.99;47.66;98074.06;5014430;28;20047;-32
2022/12/20 03:26:29;;;;;;;3.05;1.38;;;;;;;15.92;48.09;98082.44;5014209;28;20029;-32
2022/12/20 03:28:54;;;;;;;2.42;1.38;;;;;;;15.91;48.16;98074.66;5014401;28;20022;-32
2022/12/20 03:31:20;;;;;;;3.45;1.42;;;;;;;15.94;47.75;98073.81;5014049;28;20061;-32
2022/12/20 03:33:45;;;;;;;2.58;1.20;;;;;;;15.91;47.94;98069.94;5013906;28;20241;-32
2022/12/20 03:36:11;;;;;;;1.55;1.15;;;;;;;15.94;47.56;98063.63;5013975;28;20366;-32
2022/12/20 03:38:36;;;;;;;2.67;1.23;;;;;;;15.92;47.67;98065.25;5014020;28;20097;-32
2022/12/20 03:41:02;;;;;;;2.65;1.40;;;;;;;15.92;47.70;98067.97;5016067;28;20025;-32
2022/12/20 03:43:27;;;;;;;1.55;1.20;;;;;;;15.90;47.85;98071.13;5008197;28;20084;-32
2022/12/20 03:45:52;;;;;;;1.92;1.15;;;;;;;15.85;47.91;98074.34;5006909;28;20517;-32
2022/12/20 03:48:18;;;;;;;2.40;1.40;;;;;;;15.88;47.69;98072.75;5008262;28;20026;-32
2022/12/20 03:50:44;;;;;;;2.10;1.27;;;;;;;15.89;47.72;98066.84;5006645;28;20096;-32
2022/12/20 03:53:09;;;;;;;1.52;1.10;;;;;;;15.86;47.73;98067.69;5013760;28;20026;-32
2022/12/20 03:55:35;;;;;;;2.60;1.40;;;;;;;15.89;47.55;98061.38;5013729;28;20080;-32
2022/12/20 03:58:00;;;;;;;2.45;1.40;;;;;;;15.88;47.66;98065.31;5013564;28;20026;-32
2022/12/20 04:00:26;;;;;;;1.90;1.13;;;;;;;15.85;47.84;98063.41;5013796;28;20025;-32
2022/12/20 04:02:51;;;;;;;2.17;1.17;;;;;;;15.86;47.80;98066.91;5013505;28;20025;-32
2022/12/20 04:05:17;;;;;;;2.10;1.25;;;;;;;15.80;47.79;98064.69;5013853;28;20032;-32
2022/12/20 04:07:44;;;;;;;2.10;1.10;;;;;;;15.89;47.50;98060.59;5013665;28;20024;-32
2022/12/20 04:10:11;;;;;;;2.20;1.20;;;;;;;15.81;47.58;98070.94;5013337;28;20034;-32
2022/12/20 04:12:36;;;;;;;2.22;1.00;;;;;;;15.83;47.58;98060.31;5013628;28;20026;-32
2022/12/20 04:15:03;;;;;;;2.80;1.30;;;;;;;15.80;47.51;98059.22;5013827;28;20041;-32
2022/12/20 04:17:28;;;;;;;1.80;1.10;;;;;;;15.86;47.58;98058.72;5013525;28;20474;-32
2022/12/20 04:19:54;;;;;;;2.58;1.10;;;;;;;15.80;47.48;98051.00;5013777;28;20072;-32
2022/12/20 04:22:19;;;;;;;2.20;1.08;;;;;;;15.79;47.33;98052.19;4995783;28;20029;-32
2022/12/20 04:24:45;;;;;;;2.60;1.40;;;;;;;15.85;47.35;98049.72;5019609;28;20053;-32
2022/12/20 04:27:10;;;;;;;1.85;1.50;;;;;;;15.79;47.57;98040.50;5019971;28;20026;-32
2022/12/20 04:29:36;;;;;;;1.98;1.30;;;;;;;15.78;47.78;98049.88;5020031;28;20033;-32
2022/12/20 04:32:01;;;;;;;1.60;1.00;;;;;;;15.80;47.50;98037.34;4998904;28;20193;-32
2022/12/20 04:34:27;;;;;;;1.63;1.15;;;;;;;15.73;47.42;98053.09;5000330;28;20080;-32
2022/12/20 04:36:52;;;;;;;2.55;1.20;;;;;;;15.78;47.58;98049.88;5000212;28;20473;-32
2022/12/20 04:39:18;;;;;;;2.72;1.00;;;;;;;15.71;47.66;98044.53;5000287;28;20022;-32
2022/12/20 04:41:43;;;;;;;1.38;1.10;;;;;;;15.74;47.76;98046.44;5000479;28;20018;-32
2022/12/20 04:44:08;;;;;;;1.23;0.93;;;;;;;15.72;47.83;98052.31;5000116;28;20025;-31
2022/12/20 04:46:40;;;;;;;2.83;1.27;;;;;;;15.78;47.78;98044.41;4987310;28;20355;-31
2022/12/20 04:49:06;;;;;;;2.17;1.13;;;;;;;15.72;47.68;98043.34;5000456;28;20571;-31
2022/12/20 04:51:31;;;;;;;1.52;0.93;;;;;;;15.82;47.25;98039.66;5000266;28;20025;-31
2022/12/20 04:53:57;;;;;;;1.65;1.00;;;;;;;15.76;47.53;98042.09;4998783;28;20026;-31
2022/12/20 04:56:27;;;;;;;1.98;1.08;;;;;;;15.76;47.60;98044.06;4999008;28;20501;-31
2022/12/20 04:58:54;;;;;;;2.03;1.05;;;;;;;15.74;47.48;98043.72;5000028;28;20033;-31
2022/12/20 05:01:20;;;;;;;2.72;1.20;;;;;;;15.72;47.49;98037.88;5000074;28;20057;-31
2022/12/20 05:03:48;;;;;;;2.72;1.30;;;;;;;15.74;47.50;98047.22;5000122;28;20105;-31
2022/12/20 05:06:14;;;;;;;2.67;1.52;;;;;;;15.75;47.74;98048.00;5000147;28;20026;-31
2022/12/20 05:08:39;;;;;;;3.75;1.80;;;;;;;15.70;47.66;98056.69;4999872;28;20026;-31
2022/12/20 05:11:05;;;;;;;2.17;1.70;;;;;;;15.73;47.63;98048.41;5000121;28;20014;-31
2022/12/20 05:13:33;;;;;;;2.35;1.83;;;;;;;15.72;47.73;98051.56;4999918;28;20057;-31
2022/12/20 05:15:58;;;;;;;2.60;1.80;;;;;;;15.64;47.81;98039.22;5000212;28;20080;-31
2022/12/20 05:18:25;;;;;;;2.13;1.45;;;;;;;15.68;47.75;98035.22;4999705;28;20022;-31
2022/12/20 05:26:16;;;;;;;2.28;1.63;;;;;;;15.55;47.80;98039.78;5000183;28;20462;-31
2022/12/20 05:26:23;;;;;;;2.70;1.55;;;;;;;15.64;47.40;98041.97;5000041;28;20037;-31
2022/12/20 05:28:49;;;;;;;2.88;1.52;;;;;;;15.68;47.59;98034.47;4998706;28;20018;-31
2022/12/20 05:31:15;;;;;;;3.13;1.50;;;;;;;15.69;47.57;98042.25;5006440;28;20042;-31
2022/12/20 05:33:40;;;;;;;1.83;1.55;;;;;;;15.70;47.47;98040.28;5019479;28;20545;-31
2022/12/20 05:36:06;;;;;;;2.63;1.52;;;;;;;15.65;47.55;98046.25;5003032;28;20096;-31
2022/12/20 05:38:32;;;;;;;2.90;1.65;;;;;;;15.64;47.73;98050.94;5016522;28;20100;-31
2022/12/20 05:40:58;;;;;;;1.70;1.60;;;;;;;15.69;47.69;98042.25;5017394;28;20489;-31
2022/12/20 05:43:23;;;;;;;2.05;1.42;;;;;;;15.68;47.68;98043.44;5016411;28;20052;-31
2022/12/20 05:45:51;;;;;;;4.53;1.85;;;;;;;15.69;47.85;98049.69;5016223;28;20018;-31
2022/12/20 05:48:19;;;;;;;2.35;1.48;;;;;;;15.70;47.74;98043.03;5016193;28;20366;-31
2022/12/20 05:50:45;;;;;;;2.70;1.60;;;;;;;15.66;47.81;98031.38;5016107;28;20028;-31
2022/12/20 05:53:12;;;;;;;2.08;1.58;;;;;;;15.67;47.64;98030.19;5015913;28;20767;-31
2022/12/20 05:55:42;;;;;;;4.88;2.03;;;;;;;15.66;47.74;98031.38;5016102;28;20390;-31
2022/12/20 05:58:08;;;;;;;2.58;1.60;;;;;;;15.69;47.53;98036.78;5015917;28;20028;-31
2022/12/20 06:00:33;;;;;;;2.47;1.50;;;;;;;15.68;47.80;98031.72;5015745;28;20030;-31
2022/12/20 06:02:59;;;;;;;5.20;1.70;;;;;;;15.62;47.38;98030.66;5015724;28;20427;-31
2022/12/20 06:05:24;;;;;;;2.88;1.63;;;;;;;15.70;47.39;98030.09;5015631;28;20036;-31
2022/12/20 06:07:50;;;;;;;2.08;1.33;;;;;;;15.63;47.80;98038.44;5015799;28;20021;-31
2022/12/20 06:10:15;;;;;;;4.03;1.60;;;;;;;15.69;47.56;98031.31;5015671;28;20048;-31
2022/12/20 06:12:41;;;;;;;2.60;1.50;;;;;;;15.63;47.74;98024.78;5015697;28;20363;-31
2022/12/20 06:15:08;;;;;;;2.92;1.67;;;;;;;15.61;47.74;98024.41;5015503;28;20026;-31
2022/12/20 06:17:34;;;;;;;2.15;1.70;;;;;;;15.64;47.77;98017.34;5015894;28;20084;-31
2022/12/20 06:19:59;;;;;;;4.05;2.08;;;;;;;15.64;47.82;98020.06;5013929;28;20105;-31
2022/12/20 06:22:25;;;;;;;2.53;1.50;;;;;;;15.66;47.91;98025.91;5015454;28;20061;-31
2022/12/20 06:24:50;;;;;;;2.28;1.60;;;;;;;15.58;47.70;98016.31;5015270;28;20030;-31
2022/12/20 06:27:17;;;;;;;2.53;1.70;;;;;;;15.61;47.91;98020.91;5015484;28;20048;-31
2022/12/20 06:29:50;;;;;;;2.70;1.70;;;;;;;15.56;47.90;98029.63;5015345;28;20022;-31
2022/12/20 06:32:16;;;;;;;;;;;;;;;15.59;47.88;98023.28;5015665;28;20389;-31
2022/12/20 06:34:41;;;;;;;2.42;1.40;;;;;;;15.62;47.86;98023.22;5015364;28;19909;-31
2022/12/20 06:37:07;;;;;;;2.33;1.55;;;;;;;15.63;47.81;98010.31;4997660;28;20022;-31
2022/12/20 06:39:32;;;;;;;2.10;1.70;;;;;;;15.66;47.83;98014.97;5002282;28;20065;-31
2022/12/20 06:41:58;;;;;;;3.15;2.00;;;;;;;15.62;47.92;98014.25;5015323;28;20021;-31
2022/12/20 06:44:23;;;;;;;2.28;1.73;;;;;;;15.64;47.89;98022.81;5001924;28;20022;-31
2022/12/20 06:46:49;;;;;;;2.88;1.70;;;;;;;15.60;47.79;98019.38;5014725;28;20022;-31
2022/12/20 06:49:14;;;;;;;2.97;2.00;;;;;;;15.59;47.76;98029.53;5014669;28;20080;-31
2022/12/20 06:51:40;;;;;;;2.70;2.00;;;;;;;15.60;47.96;98027.56;5014889;28;20033;-31
2022/12/20 06:54:05;;;;;;;3.90;1.85;;;;;;;15.54;48.10;98024.53;5014995;28;20477;-32
2022/12/20 06:56:31;;;;;;;4.63;1.80;;;;;;;15.61;47.93;98018.19;4997400;28;20032;-31
2022/12/20 06:58:56;;;;;;;2.65;1.95;;;;;;;15.56;48.04;98026.88;5014638;28;20022;-31
2022/12/20 07:01:21;;;;;;;5.70;2.28;;;;;;;15.62;47.95;98025.97;5012183;28;20056;-31
2022/12/20 07:03:47;;;;;;;5.10;2.42;;;;;;;15.56;47.97;98035.09;4996245;28;20497;-32
2022/12/20 07:06:13;;;;;;;4.57;2.30;;;;;;;15.62;47.81;98019.72;4989440;28;20130;-32
2022/12/20 07:08:38;;;;;;;3.42;2.30;;;;;;;15.60;48.00;98035.78;4987531;28;20025;-32
2022/12/20 07:11:07;;;;;;;3.53;2.30;;;;;;;15.53;48.25;98022.22;4987433;28;20626;-32
2022/12/20 07:13:33;;;;;;;4.85;2.42;;;;;;;15.54;48.24;98021.81;4987897;28;20033;-32
2022/12/20 07:16:03;;;;;;;5.20;2.88;;;;;;;15.57;48.24;98031.16;4987315;28;20486;-32
2022/12/20 07:18:29;;;;;;;4.68;2.58;;;;;;;15.61;48.09;98024.41;4987206;28;20940;-32
2022/12/20 07:20:59;;;;;;;4.20;2.15;;;;;;;15.54;48.40;98029.25;4987360;28;20179;-32
2022/12/20 07:23:25;;;;;;;6.35;3.30;;;;;;;15.56;48.32;98026.88;4992063;28;20029;-32
2022/12/20 07:25:57;;;;;;;7.68;3.88;;;;;;;15.54;48.58;98029.25;5014114;28;20048;-32
2022/12/20 07:28:23;;;;;;;5.20;3.45;;;;;;;15.55;48.39;98026.13;5014371;28;20470;-32
2022/12/20 07:30:49;;;;;;;6.65;3.67;;;;;;;15.54;48.45;98019.06;4996512;28;20145;-31
2022/12/20 07:33:15;;;;;;;6.75;3.55;;;;;;;15.48;48.75;98020.75;5014289;28;20116;-31
2022/12/20 07:35:40;;;;;;;6.43;3.42;;;;;;;15.48;48.62;98031.69;4996569;28;20033;-31
2022/12/20 07:38:06;;;;;;;5.95;3.45;;;;;;;15.49;48.75;98033.22;5012459;28;20531;-31
2022/12/20 07:40:31;;;;;;;5.30;3.40;;;;;;;15.51;48.64;98025.38;5011833;28;20497;-31
2022/12/20 07:42:56;;;;;;;5.45;3.70;;;;;;;15.57;48.82;98022.97;5014572;28;20100;-31
2022/12/20 07:45:22;;;;;;;5.38;3.33;;;;;;;15.64;48.70;98020.06;5012103;28;20062;-31
2022/12/20 07:47:48;;;;;;;5.90;3.17;;;;;;;15.64;48.53;98022.81;5011610;28;20022;-31
2022/12/20 07:50:13;;;;;;;5.97;3.30;;;;;;;15.58;48.72;98021.78;5011462;28;20114;-31
2022/12/20 07:52:43;;;;;;;4.82;2.88;;;;;;;15.59;48.84;98026.03;5011479;28;20041;-31
2022/12/20 07:55:10;;;;;;;5.13;2.75;;;;;;;15.66;48.52;98028.63;5011085;28;20033;-31
2022/12/20 07:57:51;;;;;;;5.70;3.15;;;;;;;15.50;49.14;98029.28;5013898;28;20033;-31
2022/12/20 08:00:20;;;;;;;5.85;3.25;;;;;;;15.57;49.04;98025.69;5011639;28;20116;-31
2022/12/20 08:03:01;;;;;;;5.85;3.08;;;;;;;15.50;49.37;98020.31;5010973;28;20038;-31
2022/12/20 08:05:27;;;;;;;4.35;2.90;;;;;;;15.60;49.13;98030.31;5012743;28;20486;-31
2022/12/20 08:07:56;;;;;;;5.15;3.05;;;;;;;15.45;49.51;98029.81;5011301;28;20034;-31
2022/12/20 08:10:22;;;;;;;4.78;3.42;;;;;;;15.57;49.24;98037.41;5011293;28;20023;-31
2022/12/20 08:12:48;;;;;;;5.25;2.92;;;;;;;15.62;49.25;98042.38;5009313;28;20041;-31
2022/12/20 08:15:14;;;;;;;7.05;3.55;;;;;;;15.55;49.64;98037.06;5011321;28;20390;-31
2022/12/20 08:17:39;;;;;;;6.22;3.17;;;;;;;15.62;49.35;98042.38;5010682;28;20030;-31
2022/12/20 08:20:07;;;;;;;5.43;3.50;;;;;;;14.81;52.23;98030.94;5011589;28;20033;-30
2022/12/20 08:22:33;;;;;;;6.28;3.92;;;;;;;14.71;52.75;98029.88;5011471;28;20120;-32
2022/12/20 08:24:59;;;;;;;5.07;3.85;;;;;;;15.02;51.91;98032.53;5011255;28;20045;-32
2022/12/20 08:27:24;;;;;;;7.28;3.95;;;;;;;15.18;51.36;98037.31;5010623;28;20029;-31
2022/12/20 08:29:50;;;;;;;8.00;3.78;;;;;;;15.42;50.88;98044.31;5010273;28;20034;-31
2022/12/20 08:32:16;;;;;;;5.03;3.35;;;;;;;15.45;50.80;98046.22;5010984;28;20050;-31
2022/12/20 08:34:41;;;;;;;5.60;3.47;;;;;;;15.53;50.27;98042.13;5011041;28;20026;-31
2022/12/20 08:37:07;;;;;;;5.57;3.65;;;;;;;15.52;50.48;98046.06;5011354;28;20041;-31
2022/12/20 08:39:32;;;;;;;5.22;2.92;;;;;;;15.53;50.37;98047.59;5011031;28;20390;-31
2022/12/20 08:41:58;;;;;;;4.10;3.17;;;;;;;15.63;50.25;98043.91;4994462;28;20024;-31
2022/12/20 08:44:24;;;;;;;4.15;2.70;;;;;;;15.66;50.14;98054.03;5013380;28;20087;-31
2022/12/20 08:46:50;;;;;;;6.07;3.00;;;;;;;15.63;50.30;98054.09;5013615;28;20030;-31
2022/12/20 08:49:15;;;;;;;4.03;2.40;;;;;;;15.61;50.32;98049.03;5012954;28;20014;-31
2022/12/20 08:51:41;;;;;;;4.78;3.20;;;;;;;15.60;50.61;98049.44;5013291;28;20377;-31
2022/12/20 08:54:07;;;;;;;4.78;2.75;;;;;;;15.61;50.32;98046.28;4995140;28;20029;-31
2022/12/20 08:56:32;;;;;;;5.28;3.13;;;;;;;15.60;50.49;98046.72;4995585;28;20033;-31
2022/12/20 08:58:58;;;;;;;5.43;2.88;;;;;;;15.61;50.50;98051.00;5013069;28;20382;-31
2022/12/20 09:01:25;;;;;;;3.80;3.05;;;;;;;15.60;50.48;98054.91;5013111;28;20037;-31
2022/12/20 09:03:51;;;;;;;3.72;2.55;;;;;;;15.60;50.59;98043.97;5012939;28;20022;-31
2022/12/20 09:06:19;;;;;;;6.38;3.00;;;;;;;15.61;50.60;98045.53;5012988;28;20037;-31
2022/12/20 09:08:46;;;;;;;3.47;2.58;;;;;;;15.62;50.59;98036.91;5013249;28;20071;-31
2022/12/20 09:11:20;;;;;;;3.95;2.50;;;;;;;15.61;50.72;98046.28;5016806;28;20394;-31
2022/12/20 09:13:48;;;;;;;4.40;2.42;;;;;;;15.64;50.69;98048.19;5016854;28;20044;-31
2022/12/20 09:16:16;;;;;;;3.78;2.45;;;;;;;15.68;50.58;98040.72;5016643;28;20026;-31
2022/12/20 09:18:42;;;;;;;3.80;2.38;;;;;;;15.65;50.80;98047.00;5016556;28;20413;-31
2022/12/20 09:21:09;;;;;;;3.90;2.30;;;;;;;15.60;50.93;98043.97;5016542;28;20458;-31
2022/12/20 09:23:36;;;;;;;6.10;2.72;;;;;;;15.67;50.81;98043.84;5016800;28;20030;-31
2022/12/20 09:26:12;;;;;;;4.68;2.40;;;;;;;15.67;50.73;98052.06;5016751;28;20033;-31
2022/12/20 09:28:38;;;;;;;3.67;2.40;;;;;;;15.66;50.83;98037.63;5016512;28;20025;-31
2022/12/20 09:31:06;;;;;;;3.60;2.60;;;;;;;15.64;50.96;98039.22;5016142;28;20041;-31
2022/12/20 09:33:33;;;;;;;3.80;2.42;;;;;;;15.69;50.88;98034.03;5016346;28;20026;-31
2022/12/20 09:36:00;;;;;;;3.05;2.08;;;;;;;15.62;51.09;98025.19;5020124;28;20080;-31
2022/12/20 09:38:27;;;;;;;2.50;1.90;;;;;;;15.64;50.93;98036.50;5010570;28;20034;-31
2022/12/20 09:40:57;;;;;;;2.75;2.08;;;;;;;15.72;51.04;98029.69;4992045;28;20028;-31
2022/12/20 09:43:23;;;;;;;3.95;2.20;;;;;;;15.67;51.05;98027.44;5002217;28;20018;-31
2022/12/20 09:45:55;;;;;;;3.25;1.98;;;;;;;15.62;51.13;98025.19;5016032;28;20881;-31
2022/12/20 09:48:32;;;;;;;4.72;2.40;;;;;;;15.65;51.20;98027.88;5003775;28;20084;-31
2022/12/20 09:51:06;;;;;;;2.75;1.92;;;;;;;15.62;51.19;98030.66;5015803;28;20426;-31
2022/12/20 09:53:55;;;;;;;2.90;1.92;;;;;;;15.57;51.54;98021.00;5016170;28;20382;-31
2022/12/20 09:56:31;;;;;;;3.03;1.70;;;;;;;15.58;51.58;98022.53;5014933;28;20473;-31
2022/12/20 09:59:04;;;;;;;2.90;2.00;;;;;;;15.64;51.30;98023.59;5015708;28;20482;-31
2022/12/20 10:01:33;;;;;;;3.90;1.90;;;;;;;15.55;51.72;98014.41;5015987;28;20029;-31
2022/12/20 10:04:03;;;;;;;3.03;1.88;;;;;;;15.58;51.67;98013.56;4998197;28;20026;-31
2022/12/20 10:06:38;;;;;;;2.90;2.10;;;;;;;15.62;51.47;98004.09;4998019;28;20401;-31
2022/12/20 10:09:15;;;;;;;4.38;1.90;;;;;;;15.59;51.61;98013.13;5015565;28;20014;-31
2022/12/20 10:12:15;;;;;;;3.22;2.00;;;;;;;15.65;51.56;98007.94;4998385;28;20030;-31
2022/12/20 10:15:03;;;;;;;3.72;2.03;;;;;;;15.55;51.94;97993.31;5005530;28;20100;-31
2022/12/20 10:17:47;;;;;;;6.13;2.28;;;;;;;15.44;52.38;97998.19;5015798;28;20459;-31
2022/12/20 10:20:45;;;;;;;3.92;1.80;;;;;;;15.47;52.16;98000.06;5015062;28;20117;-31
2022/12/20 10:23:22;;;;;;;4.32;1.90;;;;;;;15.53;52.26;97990.19;5015362;28;20061;-31
2022/12/20 10:25:50;;;;;;;2.53;1.98;;;;;;;15.45;52.44;97986.81;5003508;28;20394;-31
2022/12/20 10:28:16;;;;;;;3.22;1.90;;;;;;;15.56;52.02;97983.91;5015565;28;20092;-31
2022/12/20 10:30:42;;;;;;;3.67;1.92;;;;;;;15.62;51.93;97984.16;5015208;28;20026;-31
2022/12/20 10:33:19;;;;;;;2.90;1.90;;;;;;;15.71;51.96;97982.41;5015275;28;20474;-31
2022/12/20 10:35:45;;;;;;;2.58;2.05;;;;;;;15.61;52.22;97979.91;5005677;28;20108;-31
2022/12/20 10:38:13;;;;;;;2.78;2.00;;;;;;;15.74;51.76;97975.31;5011788;28;20493;-32
2022/12/20 10:40:46;;;;;;;2.15;1.80;;;;;;;15.64;52.28;97965.38;5013879;28;20117;-31
2022/12/20 10:43:21;;;;;;;3.63;1.90;;;;;;;15.55;52.83;97970.66;5012907;28;20033;-31
2022/12/20 10:46:00;;;;;;;3.90;1.70;;;;;;;15.63;52.46;97969.31;5014484;28;20029;-32
2022/12/20 10:48:30;;;;;;;4.97;2.28;;;;;;;15.62;52.51;97971.28;5003182;28;20088;-31
2022/12/20 10:51:00;;;;;;;4.50;2.10;;;;;;;15.28;54.01;97962.56;4997893;28;20032;-31
2022/12/20 10:53:27;;;;;;;3.85;2.17;;;;;;;15.56;52.87;97964.00;5015110;28;20032;-31
2022/12/20 10:56:07;;;;;;;2.75;1.80;;;;;;;15.72;52.46;97955.81;5015014;28;20029;-31
2022/12/20 10:58:36;;;;;;;3.00;1.73;;;;;;;15.71;52.42;97957.00;5014772;28;20026;-31
2022/12/20 11:01:09;;;;;;;3.50;1.92;;;;;;;15.79;52.06;97958.44;4997001;28;20021;-31
2022/12/20 11:03:52;;;;;;;2.65;1.67;;;;;;;15.76;52.23;97948.31;5014905;28;20458;-31
2022/12/20 11:06:19;;;;;;;3.20;1.70;;;;;;;15.64;52.44;97951.72;5014814;28;20044;-31
2022/12/20 11:08:47;;;;;;;3.50;1.70;;;;;;;15.71;52.43;97940.59;5014489;28;20030;-31
2022/12/20 11:11:23;;;;;;;2.22;1.60;;;;;;;15.60;52.29;97940.84;5014441;28;20033;-31
2022/12/20 11:13:50;;;;;;;2.03;1.52;;;;;;;15.71;52.47;97937.88;5014567;28;20017;-31
2022/12/20 11:16:29;;;;;;;2.40;1.80;;;;;;;15.72;52.28;97933.94;5014433;28;20021;-31
2022/12/20 11:19:06;;;;;;;3.17;1.33;;;;;;;15.78;52.06;97924.06;5014583;28;20432;-31
2022/12/20 11:21:50;;;;;;;3.03;1.45;;;;;;;15.85;51.88;97929.34;5014469;28;20029;-32
2022/12/20 11:24:39;;;;;;;2.97;1.65;;;;;;;15.82;51.84;97928.22;5014424;28;20490;-31
2022/12/20 11:27:13;;;;;;;1.83;1.52;;;;;;;15.82;52.02;97914.56;5014420;28;20021;-31
2022/12/20 11:30:21;;;;;;;1.75;1.50;;;;;;;15.79;52.18;97909.97;5014105;28;20025;-31
2022/12/20 11:33:13;;;;;;;2.28;1.48;;;;;;;15.81;52.05;97915.00;4964533;28;20055;-30
2022/12/20 11:35:51;;;;;;;1.80;1.48;;;;;;;15.76;52.18;97905.31;4973297;28;20503;-31
2022/12/20 11:38:24;;;;;;;3.40;1.33;;;;;;;15.80;52.02;97908.75;4972481;28;20050;-31
2022/12/20 11:40:52;;;;;;;3.60;1.50;;;;;;;15.85;51.74;97902.00;4982115;28;20033;-31
2022/12/20 11:43:45;;;;;;;1.40;1.13;;;;;;;15.77;52.07;97903.38;4974230;28;20031;-32
2022/12/20 11:46:41;;;;;;;2.03;1.52;;;;;;;15.78;52.12;97900.22;4959934;28;20091;-31